createdAt,value
2023-03-01T00:01:34.904Z,72.74
2023-03-01T00:04:02.612Z,72.68
2023-03-01T00:06:30.683Z,72.85
2023-03-01T00:08:58.353Z,73.00
2023-03-01T00:11:29.643Z,73.22
2023-03-01T00:14:01.348Z,73.04
2023-03-01T00:16:36.973Z,72.95
2023-03-01T00:19:05.093Z,72.92
2023-03-01T00:21:32.783Z,72.90
2023-03-01T00:24:00.638Z,72.57
2023-03-01T00:26:29.224Z,72.40
2023-03-01T00:28:58.822Z,72.37
2023-03-01T00:31:30.466Z,72.57
2023-03-01T00:34:01.935Z,72.62
2023-03-01T00:36:34.376Z,72.58
2023-03-01T00:39:04.705Z,72.68
2023-03-01T00:41:34.140Z,72.58
2023-03-01T00:44:01.860Z,72.56
2023-03-01T00:46:31.123Z,72.46
2023-03-01T00:48:58.841Z,72.73
2023-03-01T00:51:29.256Z,73.06
2023-03-01T00:54:01.330Z,73.07
2023-03-01T00:56:30.745Z,72.87
2023-03-01T00:58:58.933Z,72.99
2023-03-01T01:01:30.146Z,72.92
2023-03-01T01:04:01.847Z,73.05
2023-03-01T01:06:34.488Z,72.94
2023-03-01T01:09:06.020Z,72.98
2023-03-01T01:11:36.512Z,72.95
2023-03-01T01:14:04.636Z,72.97
2023-03-01T01:16:32.947Z,73.10
2023-03-01T01:19:00.883Z,73.22
2023-03-01T01:21:29.359Z,73.19
2023-03-01T01:23:57.793Z,73.10
2023-03-01T01:26:33.153Z,73.14
2023-03-01T01:29:04.675Z,73.16
2023-03-01T01:31:33.614Z,73.23
2023-03-01T01:34:04.483Z,73.21
2023-03-01T01:36:34.420Z,73.23
2023-03-01T01:39:02.523Z,73.23
2023-03-01T01:41:31.050Z,73.08
2023-03-01T01:44:23.870Z,72.90
2023-03-01T01:47:06.233Z,73.06
2023-03-01T01:49:44.352Z,72.94
2023-03-01T01:52:23.076Z,73.02
2023-03-01T01:55:12.047Z,73.01
2023-03-01T01:57:46.316Z,72.86
2023-03-01T02:00:19.089Z,73.11
2023-03-01T02:02:52.530Z,73.13
2023-03-01T02:05:25.849Z,73.05
2023-03-01T02:07:54.405Z,72.99
2023-03-01T02:10:25.141Z,73.03
2023-03-01T02:12:53.486Z,72.96
2023-03-01T02:15:23.218Z,72.62
2023-03-01T02:17:51.929Z,72.79
2023-03-01T02:20:59.942Z,72.82
2023-03-01T02:23:29.534Z,72.69
2023-03-01T02:26:17.742Z,72.91
2023-03-01T02:28:46.097Z,72.97
2023-03-01T02:31:36.665Z,73.14
2023-03-01T02:34:06.159Z,73.18
2023-03-01T02:36:39.129Z,73.24
2023-03-01T02:39:11.761Z,73.59
2023-03-01T02:41:40.257Z,73.94
2023-03-01T02:44:08.861Z,73.89
2023-03-01T02:46:44.170Z,73.79
2023-03-01T02:49:32.253Z,73.62
2023-03-01T02:52:31.337Z,73.49
2023-03-01T02:55:13.410Z,73.49
2023-03-01T02:57:44.958Z,73.51
2023-03-01T03:00:23.533Z,73.42
2023-03-01T03:02:54.022Z,73.57
2023-03-01T03:05:30.522Z,73.28
2023-03-01T03:08:01.607Z,73.11
2023-03-01T03:10:35.117Z,73.00
2023-03-01T03:13:10.427Z,73.01
2023-03-01T03:15:39.415Z,72.93
2023-03-01T03:18:11.578Z,72.96
2023-03-01T03:20:44.249Z,73.10
2023-03-01T03:23:12.504Z,73.19
2023-03-01T03:25:40.098Z,72.89
2023-03-01T03:28:11.441Z,72.83
2023-03-01T03:30:41.727Z,73.00
2023-03-01T03:33:13.673Z,72.76
2023-03-01T03:35:48.733Z,72.67
2023-03-01T03:38:19.639Z,72.79
2023-03-01T03:40:53.510Z,72.90
2023-03-01T03:43:23.804Z,72.80
2023-03-01T03:45:52.711Z,72.63
2023-03-01T03:48:21.487Z,72.67
2023-03-01T03:50:53.913Z,72.68
2023-03-01T03:53:25.268Z,72.80
2023-03-01T03:55:54.061Z,72.93
2023-03-01T03:58:24.759Z,73.00
2023-03-01T04:00:56.746Z,73.07
2023-03-01T04:03:26.672Z,73.41
2023-03-01T04:05:54.619Z,73.44
2023-03-01T04:08:24.076Z,73.50
2023-03-01T04:10:59.102Z,73.70
2023-03-01T04:13:27.418Z,73.78
2023-03-01T04:15:56.927Z,73.73
2023-03-01T04:18:25.796Z,73.72
2023-03-01T04:20:55.669Z,73.66
2023-03-01T04:23:23.492Z,73.71
2023-03-01T04:25:57.692Z,73.79
2023-03-01T04:28:34.664Z,73.72
2023-03-01T04:31:17.744Z,73.82
2023-03-01T04:33:51.827Z,73.83
2023-03-01T04:36:23.808Z,73.91
2023-03-01T04:38:52.423Z,73.82
2023-03-01T04:41:23.187Z,73.46
2023-03-01T04:43:51.312Z,73.26
2023-03-01T04:46:21.823Z,73.19
2023-03-01T04:48:49.649Z,73.37
2023-03-01T04:51:18.869Z,73.58
2023-03-01T04:53:47.154Z,73.71
2023-03-01T04:56:15.826Z,73.77
2023-03-01T04:58:43.846Z,73.72
2023-03-01T05:01:16.649Z,73.69
2023-03-01T05:03:48.298Z,73.86
2023-03-01T05:06:17.406Z,73.67
2023-03-01T05:08:46.463Z,73.79
2023-03-01T05:11:14.861Z,73.69
2023-03-01T05:13:42.810Z,73.54
2023-03-01T05:16:11.611Z,73.53
2023-03-01T05:18:41.233Z,73.43
2023-03-01T05:21:13.420Z,73.50
2023-03-01T05:23:41.226Z,73.55
2023-03-01T05:26:25.822Z,73.64
2023-03-01T05:28:40.204Z,73.68
2023-03-01T05:31:10.091Z,73.60
2023-03-01T05:33:40.832Z,73.53
2023-03-01T05:36:10.439Z,73.60
2023-03-01T05:38:38.078Z,73.49
2023-03-01T05:41:05.690Z,73.38
2023-03-01T05:43:34.410Z,73.41
2023-03-01T05:46:02.194Z,73.44
2023-03-01T05:48:29.983Z,73.52
2023-03-01T05:51:01.171Z,73.54
2023-03-01T05:53:28.828Z,73.60
2023-03-01T05:55:56.612Z,73.78
2023-03-01T05:58:24.840Z,73.96
2023-03-01T06:00:54.086Z,74.10
2023-03-01T06:03:22.016Z,74.22
2023-03-01T06:05:49.700Z,74.29
2023-03-01T06:08:17.444Z,74.45
2023-03-01T06:10:45.201Z,74.50
2023-03-01T06:13:12.908Z,74.53
2023-03-01T06:15:40.641Z,74.50
2023-03-01T06:18:09.386Z,74.54
2023-03-01T06:20:37.110Z,74.45
2023-03-01T06:23:05.000Z,74.61
2023-03-01T06:25:32.811Z,74.45
2023-03-01T06:28:01.048Z,74.54
2023-03-01T06:30:28.743Z,74.61
2023-03-01T06:32:59.377Z,74.66
2023-03-01T06:35:30.001Z,74.60
2023-03-01T06:38:00.384Z,74.66
2023-03-01T06:40:29.213Z,74.68
2023-03-01T06:42:56.672Z,74.71
2023-03-01T06:45:24.826Z,74.77
2023-03-01T06:47:52.378Z,74.85
2023-03-01T06:50:20.313Z,74.90
2023-03-01T06:52:48.622Z,75.02
2023-03-01T06:55:16.223Z,75.01
2023-03-01T06:57:43.911Z,74.94
2023-03-01T07:00:13.469Z,74.92
2023-03-01T07:02:41.069Z,74.74
2023-03-01T07:05:10.075Z,74.52
2023-03-01T07:07:37.843Z,74.38
2023-03-01T07:10:07.778Z,74.50
2023-03-01T07:12:35.515Z,74.61
2023-03-01T07:15:05.059Z,74.36
2023-03-01T07:17:32.659Z,74.34
2023-03-01T07:20:00.423Z,73.97
2023-03-01T07:22:27.948Z,73.77
2023-03-01T07:24:55.483Z,73.56
2023-03-01T07:27:23.047Z,73.42
2023-03-01T07:29:50.924Z,73.38
2023-03-01T07:32:19.322Z,72.33
2023-03-01T07:34:46.967Z,72.28
2023-03-01T07:37:14.893Z,71.85
2023-03-01T07:39:42.629Z,71.74
2023-03-01T07:42:10.471Z,71.34
2023-03-01T07:44:38.209Z,70.84
2023-03-01T07:47:06.166Z,70.81
2023-03-01T07:49:33.631Z,70.85
2023-03-01T07:52:01.466Z,70.82
2023-03-01T07:54:29.339Z,70.52
2023-03-01T07:56:58.081Z,70.68
2023-03-01T07:59:27.473Z,70.55
2023-03-01T08:01:55.168Z,70.61
2023-03-01T08:04:25.300Z,70.58
2023-03-01T08:06:53.762Z,70.46
2023-03-01T08:09:21.688Z,70.65
2023-03-01T08:11:49.299Z,70.76
2023-03-01T08:14:17.086Z,70.41
2023-03-01T08:16:44.839Z,69.34
2023-03-01T08:19:13.385Z,69.66
2023-03-01T08:21:41.172Z,69.10
2023-03-01T08:24:10.681Z,68.99
2023-03-01T08:26:38.055Z,68.29
2023-03-01T08:29:05.666Z,68.45
2023-03-01T08:31:39.427Z,68.40
2023-03-01T08:34:12.292Z,67.58
2023-03-01T08:36:43.116Z,67.72
2023-03-01T08:39:13.739Z,67.09
2023-03-01T08:41:41.657Z,66.86
2023-03-01T08:44:13.316Z,67.03
2023-03-01T08:46:42.598Z,67.05
2023-03-01T08:49:14.049Z,66.66
2023-03-01T08:51:42.605Z,66.59
2023-03-01T08:54:18.593Z,66.81
2023-03-01T08:56:47.222Z,66.45
2023-03-01T08:59:16.636Z,66.29
2023-03-01T09:01:44.682Z,66.71
2023-03-01T09:04:13.507Z,65.35
2023-03-01T09:06:41.053Z,65.76
2023-03-01T09:09:16.464Z,64.86
2023-03-01T09:11:47.804Z,65.40
2023-03-01T09:14:15.478Z,64.17
2023-03-01T09:16:43.749Z,65.10
2023-03-01T09:19:11.876Z,65.02
2023-03-01T09:21:41.120Z,65.06
2023-03-01T09:24:15.395Z,64.07
2023-03-01T09:26:45.634Z,64.03
2023-03-01T09:29:14.827Z,64.39
2023-03-01T09:31:43.434Z,63.23
2023-03-01T09:34:11.120Z,63.50
2023-03-01T09:36:39.011Z,63.15
2023-03-01T09:39:06.710Z,63.34
2023-03-01T09:41:58.388Z,61.49
2023-03-01T09:44:49.718Z,61.26
2023-03-01T09:47:31.335Z,62.00
2023-03-01T09:50:17.366Z,62.12
2023-03-01T09:53:08.108Z,62.38
2023-03-01T09:56:00.566Z,61.63
2023-03-01T09:58:58.055Z,62.73
2023-03-01T10:01:49.378Z,60.87
2023-03-01T10:04:43.226Z,60.57
2023-03-01T10:07:31.054Z,60.99
2023-03-01T10:10:01.008Z,60.52
2023-03-01T10:12:38.583Z,58.27
2023-03-01T10:15:26.943Z,57.97
2023-03-01T10:18:03.565Z,55.71
2023-03-01T10:20:45.821Z,58.42
2023-03-01T10:23:13.200Z,58.36
2023-03-01T10:26:17.759Z,59.15
2023-03-01T10:29:10.740Z,54.14
2023-03-01T10:31:50.928Z,55.95
2023-03-01T10:34:23.579Z,52.53
2023-03-01T10:36:55.983Z,53.54
2023-03-01T10:39:25.894Z,55.32
2023-03-01T10:42:06.503Z,52.94
2023-03-01T10:44:49.334Z,55.53
2023-03-01T10:47:25.145Z,56.57
2023-03-01T10:50:02.992Z,54.26
2023-03-01T10:52:37.658Z,55.64
2023-03-01T10:55:37.953Z,56.33
2023-03-01T10:58:21.794Z,56.68
2023-03-01T11:00:55.380Z,54.73
2023-03-01T11:03:31.465Z,54.33
2023-03-01T11:06:16.009Z,54.81
2023-03-01T11:08:47.254Z,53.57
2023-03-01T11:11:34.206Z,52.98
2023-03-01T11:14:27.289Z,55.34
2023-03-01T11:17:14.468Z,55.75
2023-03-01T11:19:45.226Z,55.75
2023-03-01T11:22:21.267Z,54.31
2023-03-01T11:25:07.368Z,55.03
2023-03-01T11:27:41.530Z,53.25
2023-03-01T11:30:35.868Z,54.01
2023-03-01T11:33:35.813Z,55.05
2023-03-01T11:36:17.922Z,55.49
2023-03-01T11:38:45.646Z,55.80
2023-03-01T11:41:25.409Z,56.24
2023-03-01T11:44:01.844Z,56.43
2023-03-01T11:46:41.152Z,56.43
2023-03-01T11:49:57.204Z,53.62
2023-03-01T11:52:42.154Z,54.86
2023-03-01T11:55:39.052Z,54.61
2023-03-01T11:58:57.746Z,54.08
2023-03-01T12:01:59.806Z,54.03
2023-03-01T12:04:47.946Z,54.33
2023-03-01T12:07:58.712Z,55.09
2023-03-01T12:10:42.753Z,55.39
2023-03-01T12:13:22.120Z,55.79
2023-03-01T12:16:07.242Z,56.22
2023-03-01T12:18:59.989Z,54.19
2023-03-01T12:22:02.724Z,52.89
2023-03-01T12:24:41.746Z,51.90
2023-03-01T12:27:23.267Z,52.56
2023-03-01T12:30:16.984Z,52.18
2023-03-01T12:33:02.130Z,53.82
2023-03-01T12:35:52.586Z,54.32
2023-03-01T12:38:51.542Z,54.18
2023-03-01T12:41:53.111Z,53.87
2023-03-01T12:44:48.960Z,53.85
2023-03-01T12:47:45.086Z,54.58
2023-03-01T12:50:22.550Z,54.44
2023-03-01T12:52:58.305Z,54.33
2023-03-01T12:55:43.907Z,52.51
2023-03-01T12:58:50.377Z,53.80
2023-03-01T13:01:39.766Z,53.57
2023-03-01T13:04:46.434Z,54.45
2023-03-01T13:07:38.900Z,55.20
2023-03-01T13:10:26.916Z,54.60
2023-03-01T13:13:02.891Z,54.33
2023-03-01T13:15:34.409Z,53.86
2023-03-01T13:18:07.074Z,54.14
2023-03-01T13:20:46.411Z,54.57
2023-03-01T13:23:25.764Z,53.19
2023-03-01T13:26:16.702Z,54.09
2023-03-01T13:28:56.284Z,53.92
2023-03-01T13:31:32.296Z,53.92
2023-03-01T13:34:04.894Z,54.40
2023-03-01T13:36:43.657Z,53.27
2023-03-01T13:39:33.207Z,53.08
2023-03-01T13:42:01.702Z,53.82
2023-03-01T13:44:39.144Z,54.46
2023-03-01T13:47:14.110Z,54.49
2023-03-01T13:50:01.365Z,54.17
2023-03-01T13:52:45.817Z,53.13
2023-03-01T13:55:28.051Z,53.60
2023-03-01T13:58:00.211Z,53.25
2023-03-01T14:00:38.832Z,54.15
2023-03-01T14:03:19.616Z,54.33
2023-03-01T14:06:14.273Z,54.54
2023-03-01T14:08:39.240Z,54.78
2023-03-01T14:11:36.940Z,54.93
2023-03-01T14:14:39.391Z,54.33
2023-03-01T14:17:40.448Z,54.12
2023-03-01T14:20:32.184Z,54.07
2023-03-01T14:23:03.790Z,54.26
2023-03-01T14:25:37.080Z,54.48
2023-03-01T14:28:30.702Z,54.27
2023-03-01T14:31:01.845Z,54.44
2023-03-01T14:33:34.180Z,55.21
2023-03-01T14:36:07.269Z,55.27
2023-03-01T14:38:39.548Z,54.96
2023-03-01T14:41:21.153Z,55.23
2023-03-01T14:43:59.651Z,55.53
2023-03-01T14:46:40.882Z,55.76
2023-03-01T14:49:19.370Z,55.62
2023-03-01T14:52:03.668Z,55.67
2023-03-01T14:54:44.256Z,55.71
2023-03-01T14:57:25.401Z,55.75
2023-03-01T14:59:57.385Z,55.63
2023-03-01T15:02:27.602Z,55.55
2023-03-01T15:05:01.138Z,55.49
2023-03-01T15:07:36.443Z,55.54
2023-03-01T15:10:07.298Z,55.71
2023-03-01T15:12:40.994Z,55.76
2023-03-01T15:15:32.903Z,56.04
2023-03-01T15:18:20.737Z,55.86
2023-03-01T15:20:49.938Z,56.17
2023-03-01T15:23:30.367Z,56.04
2023-03-01T15:25:58.724Z,56.07
2023-03-01T15:28:34.453Z,55.81
2023-03-01T15:31:16.774Z,55.83
2023-03-01T15:33:46.406Z,56.07
2023-03-01T15:36:34.532Z,56.18
2023-03-01T15:39:04.364Z,56.18
2023-03-01T15:41:39.222Z,56.13
2023-03-01T15:44:35.045Z,56.29
2023-03-01T15:47:00.833Z,56.39
2023-03-01T15:49:54.341Z,56.44
2023-03-01T15:52:19.248Z,56.53
2023-03-01T15:54:46.416Z,56.80
2023-03-01T15:57:15.489Z,56.82
2023-03-01T15:59:44.983Z,56.87
2023-03-01T16:02:13.935Z,56.96
2023-03-01T16:04:42.099Z,56.68
2023-03-01T16:07:10.638Z,56.74
2023-03-01T16:09:38.320Z,56.75
2023-03-01T16:12:08.987Z,56.33
2023-03-01T16:14:36.434Z,55.51
2023-03-01T16:17:03.999Z,55.80
2023-03-01T16:19:31.508Z,56.23
2023-03-01T16:21:59.726Z,56.51
2023-03-01T16:24:27.484Z,56.94
2023-03-01T16:26:55.317Z,57.09
2023-03-01T16:29:23.142Z,56.90
2023-03-01T16:31:51.434Z,57.16
2023-03-01T16:34:21.206Z,57.41
2023-03-01T16:36:50.955Z,57.44
2023-03-01T16:39:18.782Z,57.58
2023-03-01T16:41:46.488Z,57.47
2023-03-01T16:44:15.610Z,57.37
2023-03-01T16:46:44.021Z,57.56
2023-03-01T16:49:11.895Z,57.42
2023-03-01T16:51:39.583Z,57.70
2023-03-01T16:54:07.481Z,58.18
2023-03-01T16:56:36.914Z,58.63
2023-03-01T16:59:06.623Z,58.87
2023-03-01T17:01:41.124Z,58.92
2023-03-01T17:04:12.512Z,59.03
2023-03-01T17:06:40.355Z,59.06
2023-03-01T17:09:07.990Z,59.12
2023-03-01T17:11:36.825Z,59.07
2023-03-01T17:14:04.361Z,59.17
2023-03-01T17:16:31.963Z,59.43
2023-03-01T17:18:59.823Z,59.43
2023-03-01T17:21:27.964Z,59.54
2023-03-01T17:23:57.895Z,59.77
2023-03-01T17:26:25.897Z,59.94
2023-03-01T17:28:53.595Z,59.84
2023-03-01T17:31:23.654Z,60.04
2023-03-01T17:33:51.891Z,59.95
2023-03-01T17:36:19.737Z,60.25
2023-03-01T17:38:48.228Z,60.62
2023-03-01T17:41:18.129Z,60.40
2023-03-01T17:43:46.117Z,60.62
2023-03-01T17:46:14.173Z,60.87
2023-03-01T17:48:42.281Z,61.25
2023-03-01T17:51:11.723Z,61.24
2023-03-01T17:53:39.356Z,61.21
2023-03-01T17:56:08.091Z,61.29
2023-03-01T17:58:35.674Z,61.46
2023-03-01T18:01:09.517Z,61.57
2023-03-01T18:03:37.058Z,61.86
2023-03-01T18:06:15.224Z,62.24
2023-03-01T18:08:44.840Z,62.27
2023-03-01T18:11:15.084Z,62.08
2023-03-01T18:13:42.709Z,61.78
2023-03-01T18:16:14.562Z,61.53
2023-03-01T18:18:44.526Z,61.25
2023-03-01T18:21:13.946Z,61.15
2023-03-01T18:23:42.098Z,61.30
2023-03-01T18:26:12.676Z,61.32
2023-03-01T18:28:40.378Z,61.29
2023-03-01T18:31:13.144Z,61.33
2023-03-01T18:33:41.062Z,61.39
2023-03-01T18:36:23.196Z,61.42
2023-03-01T18:38:52.994Z,61.58
2023-03-01T18:41:20.736Z,61.42
2023-03-01T18:43:48.655Z,61.38
2023-03-01T18:46:16.667Z,61.43
2023-03-01T18:48:44.414Z,61.65
2023-03-01T18:51:16.490Z,61.87
2023-03-01T18:53:44.857Z,62.04
2023-03-01T18:56:13.388Z,62.18
2023-03-01T18:58:45.118Z,62.32
2023-03-01T19:01:16.764Z,62.66
2023-03-01T19:03:44.381Z,62.98
2023-03-01T19:06:12.779Z,63.19
2023-03-01T19:08:42.684Z,63.48
2023-03-01T19:11:12.117Z,63.65
2023-03-01T19:13:41.148Z,64.03
2023-03-01T19:16:12.880Z,64.08
2023-03-01T19:18:43.612Z,64.15
2023-03-01T19:21:11.794Z,64.18
2023-03-01T19:23:39.441Z,64.46
2023-03-01T19:26:13.620Z,64.60
2023-03-01T19:28:42.104Z,64.77
2023-03-01T19:31:17.605Z,64.95
2023-03-01T19:33:45.260Z,65.08
2023-03-01T19:36:14.893Z,65.27
2023-03-01T19:38:43.245Z,65.44
2023-03-01T19:41:16.215Z,65.64
2023-03-01T19:43:46.727Z,65.86
2023-03-01T19:46:15.780Z,66.01
2023-03-01T19:48:44.529Z,66.07
2023-03-01T19:51:12.857Z,66.00
2023-03-01T19:53:41.817Z,65.97
2023-03-01T19:56:10.063Z,65.99
2023-03-01T19:58:39.753Z,65.91
2023-03-01T20:01:14.756Z,65.86
2023-03-01T20:03:42.923Z,65.79
2023-03-01T20:06:14.656Z,65.68
2023-03-01T20:08:43.962Z,65.70
2023-03-01T20:11:14.915Z,65.64
2023-03-01T20:13:42.918Z,65.62
2023-03-01T20:16:11.196Z,65.72
2023-03-01T20:18:38.850Z,65.75
2023-03-01T20:21:21.517Z,65.82
2023-03-01T20:23:37.872Z,65.90
2023-03-01T20:26:09.046Z,65.91
2023-03-01T20:28:36.992Z,65.87
2023-03-01T20:31:07.533Z,65.93
2023-03-01T20:33:35.672Z,65.91
2023-03-01T20:36:05.205Z,65.88
2023-03-01T20:38:33.292Z,65.84
2023-03-01T20:41:07.685Z,65.83
2023-03-01T20:43:36.843Z,65.86
2023-03-01T20:46:07.598Z,65.93
2023-03-01T20:48:35.483Z,65.96
2023-03-01T20:51:08.270Z,66.01
2023-03-01T20:53:36.317Z,66.11
2023-03-01T20:56:06.267Z,66.23
2023-03-01T20:58:35.194Z,66.31
2023-03-01T21:01:05.724Z,66.36
2023-03-01T21:03:34.179Z,66.48
2023-03-01T21:06:05.510Z,66.62
2023-03-01T21:08:34.951Z,66.75
2023-03-01T21:11:05.625Z,66.89
2023-03-01T21:13:34.119Z,66.86
2023-03-01T21:16:09.767Z,66.94
2023-03-01T21:18:37.549Z,66.90
2023-03-01T21:21:15.978Z,66.82
2023-03-01T21:23:44.693Z,66.92
2023-03-01T21:26:16.192Z,67.02
2023-03-01T21:28:46.710Z,67.03
2023-03-01T21:31:18.908Z,67.00
2023-03-01T21:33:51.017Z,67.00
2023-03-01T21:36:20.583Z,66.97
2023-03-01T21:38:50.203Z,66.91
2023-03-01T21:41:25.716Z,67.03
2023-03-01T21:43:59.977Z,67.16
2023-03-01T21:46:31.741Z,67.25
2023-03-01T21:48:59.894Z,67.36
2023-03-01T21:51:28.079Z,67.47
2023-03-01T21:53:56.742Z,67.63
2023-03-01T21:56:27.503Z,67.82
2023-03-01T21:58:55.484Z,68.13
2023-03-01T22:01:28.721Z,68.36
2023-03-01T22:04:01.378Z,68.55
2023-03-01T22:06:34.771Z,68.84
2023-03-01T22:09:08.649Z,69.14
2023-03-01T22:11:40.430Z,69.07
2023-03-01T22:14:09.037Z,69.06
2023-03-01T22:16:39.030Z,68.87
2023-03-01T22:19:07.966Z,68.84
2023-03-01T22:21:42.402Z,68.67
2023-03-01T22:24:11.804Z,68.45
2023-03-01T22:26:42.567Z,68.27
2023-03-01T22:29:17.609Z,67.81
2023-03-01T22:31:45.706Z,67.84
2023-03-01T22:34:14.447Z,67.62
2023-03-01T22:36:42.027Z,67.45
2023-03-01T22:39:09.623Z,67.44
2023-03-01T22:41:43.441Z,67.34
2023-03-01T22:44:18.070Z,67.38
2023-03-01T22:46:46.778Z,67.46
2023-03-01T22:49:16.060Z,67.42
2023-03-01T22:51:46.654Z,67.51
2023-03-01T22:54:16.474Z,67.60
2023-03-01T22:56:44.857Z,67.71
2023-03-01T22:59:18.508Z,67.85
2023-03-01T23:01:47.941Z,67.99
2023-03-01T23:04:17.911Z,68.08
2023-03-01T23:06:55.484Z,68.11
2023-03-01T23:09:30.845Z,68.23
2023-03-01T23:12:00.665Z,68.39
2023-03-01T23:14:31.933Z,68.48
2023-03-01T23:17:01.150Z,68.52
2023-03-01T23:19:29.865Z,68.67
2023-03-01T23:21:57.907Z,68.70
2023-03-01T23:24:29.520Z,68.82
2023-03-01T23:26:59.837Z,68.84
2023-03-01T23:29:27.507Z,68.94
2023-03-01T23:31:57.104Z,68.95
2023-03-01T23:34:26.193Z,69.03
2023-03-01T23:36:54.700Z,69.07
2023-03-01T23:39:22.425Z,69.13
2023-03-01T23:41:50.344Z,69.10
2023-03-01T23:44:20.469Z,69.17
2023-03-01T23:46:49.839Z,69.11
2023-03-01T23:49:21.636Z,69.14
2023-03-01T23:51:49.595Z,69.17
2023-03-01T23:54:21.431Z,69.16
2023-03-01T23:56:49.407Z,69.12
2023-03-01T23:59:21.179Z,69.10
